sensor_id;sensor_type;location;lat;lon;timestamp;temperature;humidity
29725;DHT22;16636;48.394;15.468;2022-08-02T00:01:52;20.40;99.90
29725;DHT22;16636;48.394;15.468;2022-08-02T00:04:19;20.40;99.90
29725;DHT22;16636;48.394;15.468;2022-08-02T00:06:45;20.40;99.90
29725;DHT22;16636;48.394;15.468;2022-08-02T00:09:11;20.40;99.90
29725;DHT22;16636;48.394;15.468;2022-08-02T00:11:37;20.40;99.90
29725;DHT22;16636;48.394;15.468;2022-08-02T00:14:04;20.40;99.90
29725;DHT22;16636;48.394;15.468;2022-08-02T00:16:30;20.30;99.90
29725;DHT22;16636;48.394;15.468;2022-08-02T00:18:56;20.30;99.90
29725;DHT22;16636;48.394;15.468;2022-08-02T00:21:21;20.30;99.90
29725;DHT22;16636;48.394;15.468;2022-08-02T00:23:47;20.30;99.90
29725;DHT22;16636;48.394;15.468;2022-08-02T00:26:13;20.30;99.90
29725;DHT22;16636;48.394;15.468;2022-08-02T00:28:39;20.30;99.90
29725;DHT22;16636;48.394;15.468;2022-08-02T00:31:05;20.30;99.90
29725;DHT22;16636;48.394;15.468;2022-08-02T00:33:31;20.30;99.90
29725;DHT22;16636;48.394;15.468;2022-08-02T00:35:57;20.30;99.90
29725;DHT22;16636;48.394;15.468;2022-08-02T00:38:23;20.30;99.90
29725;DHT22;16636;48.394;15.468;2022-08-02T00:40:50;20.30;99.90
29725;DHT22;16636;48.394;15.468;2022-08-02T00:43:17;20.30;99.90
29725;DHT22;16636;48.394;15.468;2022-08-02T00:45:43;20.30;99.90
29725;DHT22;16636;48.394;15.468;2022-08-02T00:48:11;20.20;99.90
29725;DHT22;16636;48.394;15.468;2022-08-02T00:50:38;20.10;99.90
29725;DHT22;16636;48.394;15.468;2022-08-02T00:53:05;20.20;99.90
29725;DHT22;16636;48.394;15.468;2022-08-02T00:55:32;20.20;99.90
29725;DHT22;16636;48.394;15.468;2022-08-02T00:57:58;20.20;99.90
29725;DHT22;16636;48.394;15.468;2022-08-02T01:00:24;20.20;99.90
29725;DHT22;16636;48.394;15.468;2022-08-02T01:02:50;20.20;99.90
29725;DHT22;16636;48.394;15.468;2022-08-02T01:05:16;20.10;99.90
29725;DHT22;16636;48.394;15.468;2022-08-02T01:07:43;20.10;99.90
29725;DHT22;16636;48.394;15.468;2022-08-02T01:10:09;20.10;99.90
29725;DHT22;16636;48.394;15.468;2022-08-02T01:12:35;20.00;99.90
29725;DHT22;16636;48.394;15.468;2022-08-02T01:15:07;20.00;99.90
29725;DHT22;16636;48.394;15.468;2022-08-02T01:17:51;20.00;99.90
29725;DHT22;16636;48.394;15.468;2022-08-02T01:20:45;20.00;99.90
29725;DHT22;16636;48.394;15.468;2022-08-02T01:29:28;19.90;99.90
29725;DHT22;16636;48.394;15.468;2022-08-02T01:32:08;19.80;99.90
29725;DHT22;16636;48.394;15.468;2022-08-02T01:34:43;19.80;99.90
29725;DHT22;16636;48.394;15.468;2022-08-02T01:39:45;19.80;99.90
29725;DHT22;16636;48.394;15.468;2022-08-02T01:42:13;19.80;99.90
29725;DHT22;16636;48.394;15.468;2022-08-02T01:44:42;19.80;99.90
29725;DHT22;16636;48.394;15.468;2022-08-02T01:47:14;19.80;99.90
29725;DHT22;16636;48.394;15.468;2022-08-02T01:49:46;19.80;99.90
29725;DHT22;16636;48.394;15.468;2022-08-02T01:52:13;19.70;99.90
29725;DHT22;16636;48.394;15.468;2022-08-02T01:55:00;19.70;99.90
29725;DHT22;16636;48.394;15.468;2022-08-02T01:57:42;19.70;99.90
29725;DHT22;16636;48.394;15.468;2022-08-02T02:00:10;19.60;99.90
29725;DHT22;16636;48.394;15.468;2022-08-02T02:02:41;19.60;99.90
29725;DHT22;16636;48.394;15.468;2022-08-02T02:05:11;19.60;99.90
29725;DHT22;16636;48.394;15.468;2022-08-02T02:07:39;19.60;99.90
29725;DHT22;16636;48.394;15.468;2022-08-02T02:10:08;19.60;99.90
29725;DHT22;16636;48.394;15.468;2022-08-02T02:12:38;19.60;99.90
29725;DHT22;16636;48.394;15.468;2022-08-02T02:15:06;19.50;99.90
29725;DHT22;16636;48.394;15.468;2022-08-02T02:17:35;19.50;99.90
29725;DHT22;16636;48.394;15.468;2022-08-02T02:20:02;19.50;99.90
29725;DHT22;16636;48.394;15.468;2022-08-02T02:22:28;19.50;99.90
29725;DHT22;16636;48.394;15.468;2022-08-02T02:24:54;19.60;99.90
29725;DHT22;16636;48.394;15.468;2022-08-02T02:27:21;19.60;99.90
29725;DHT22;16636;48.394;15.468;2022-08-02T02:29:50;19.50;99.90
29725;DHT22;16636;48.394;15.468;2022-08-02T02:32:17;19.60;99.90
29725;DHT22;16636;48.394;15.468;2022-08-02T02:34:48;19.60;99.90
29725;DHT22;16636;48.394;15.468;2022-08-02T02:37:21;19.60;99.90
29725;DHT22;16636;48.394;15.468;2022-08-02T02:39:50;19.60;99.90
29725;DHT22;16636;48.394;15.468;2022-08-02T02:42:18;19.60;99.90
29725;DHT22;16636;48.394;15.468;2022-08-02T02:48:00;19.60;99.90
29725;DHT22;16636;48.394;15.468;2022-08-02T02:50:27;19.60;99.90
29725;DHT22;16636;48.394;15.468;2022-08-02T02:52:55;19.60;99.90
29725;DHT22;16636;48.394;15.468;2022-08-02T02:55:22;19.60;99.90
29725;DHT22;16636;48.394;15.468;2022-08-02T02:57:49;19.60;99.90
29725;DHT22;16636;48.394;15.468;2022-08-02T03:00:15;19.60;99.90
29725;DHT22;16636;48.394;15.468;2022-08-02T03:02:43;19.60;99.90
29725;DHT22;16636;48.394;15.468;2022-08-02T03:05:11;19.60;99.90
29725;DHT22;16636;48.394;15.468;2022-08-02T03:07:38;19.60;99.90
29725;DHT22;16636;48.394;15.468;2022-08-02T03:10:05;19.60;99.90
29725;DHT22;16636;48.394;15.468;2022-08-02T03:12:33;19.60;99.90
29725;DHT22;16636;48.394;15.468;2022-08-02T03:15:04;19.60;99.90
29725;DHT22;16636;48.394;15.468;2022-08-02T03:17:41;19.60;99.90
29725;DHT22;16636;48.394;15.468;2022-08-02T03:20:13;19.50;99.90
29725;DHT22;16636;48.394;15.468;2022-08-02T03:22:40;19.60;99.90
29725;DHT22;16636;48.394;15.468;2022-08-02T03:25:07;19.60;99.90
29725;DHT22;16636;48.394;15.468;2022-08-02T03:27:34;19.70;99.90
29725;DHT22;16636;48.394;15.468;2022-08-02T03:30:00;19.60;99.90
29725;DHT22;16636;48.394;15.468;2022-08-02T03:32:26;19.60;99.90
29725;DHT22;16636;48.394;15.468;2022-08-02T03:34:52;19.60;99.90
29725;DHT22;16636;48.394;15.468;2022-08-02T03:37:19;19.60;99.90
29725;DHT22;16636;48.394;15.468;2022-08-02T03:39:47;19.50;99.90
29725;DHT22;16636;48.394;15.468;2022-08-02T03:42:14;19.60;99.90
29725;DHT22;16636;48.394;15.468;2022-08-02T03:44:40;19.60;99.90
29725;DHT22;16636;48.394;15.468;2022-08-02T03:47:07;19.60;99.90
29725;DHT22;16636;48.394;15.468;2022-08-02T03:49:33;19.60;99.90
29725;DHT22;16636;48.394;15.468;2022-08-02T03:52:00;19.60;99.90
29725;DHT22;16636;48.394;15.468;2022-08-02T03:54:27;19.50;99.90
29725;DHT22;16636;48.394;15.468;2022-08-02T03:56:54;19.50;99.90
29725;DHT22;16636;48.394;15.468;2022-08-02T03:59:20;19.60;99.90
29725;DHT22;16636;48.394;15.468;2022-08-02T04:01:46;19.60;99.90
29725;DHT22;16636;48.394;15.468;2022-08-02T04:04:12;19.60;99.90
29725;DHT22;16636;48.394;15.468;2022-08-02T04:06:38;19.60;99.90
29725;DHT22;16636;48.394;15.468;2022-08-02T04:09:04;19.50;99.90
29725;DHT22;16636;48.394;15.468;2022-08-02T04:11:30;19.50;99.90
29725;DHT22;16636;48.394;15.468;2022-08-02T04:14:20;19.40;99.90
29725;DHT22;16636;48.394;15.468;2022-08-02T04:16:58;19.50;99.90
29725;DHT22;16636;48.394;15.468;2022-08-02T04:19:42;19.50;99.90
29725;DHT22;16636;48.394;15.468;2022-08-02T04:22:24;19.50;99.90
29725;DHT22;16636;48.394;15.468;2022-08-02T04:24:56;19.50;99.90
29725;DHT22;16636;48.394;15.468;2022-08-02T04:27:23;19.50;99.90
29725;DHT22;16636;48.394;15.468;2022-08-02T04:29:50;19.50;99.90
29725;DHT22;16636;48.394;15.468;2022-08-02T04:32:17;19.40;99.90
29725;DHT22;16636;48.394;15.468;2022-08-02T04:34:44;19.40;99.90
29725;DHT22;16636;48.394;15.468;2022-08-02T04:37:11;19.40;99.90
29725;DHT22;16636;48.394;15.468;2022-08-02T04:39:39;19.40;99.90
29725;DHT22;16636;48.394;15.468;2022-08-02T04:42:06;19.40;99.90
29725;DHT22;16636;48.394;15.468;2022-08-02T04:44:32;19.40;99.90
29725;DHT22;16636;48.394;15.468;2022-08-02T04:47:00;19.30;99.90
29725;DHT22;16636;48.394;15.468;2022-08-02T04:49:30;19.40;99.90
29725;DHT22;16636;48.394;15.468;2022-08-02T04:51:56;19.40;99.90
29725;DHT22;16636;48.394;15.468;2022-08-02T04:54:22;19.50;99.90
29725;DHT22;16636;48.394;15.468;2022-08-02T04:56:50;19.60;99.90
29725;DHT22;16636;48.394;15.468;2022-08-02T04:59:16;19.60;99.90
29725;DHT22;16636;48.394;15.468;2022-08-02T05:01:44;19.60;99.90
29725;DHT22;16636;48.394;15.468;2022-08-02T05:04:10;19.50;99.90
29725;DHT22;16636;48.394;15.468;2022-08-02T05:06:36;19.50;99.90
29725;DHT22;16636;48.394;15.468;2022-08-02T05:09:02;19.40;99.90
29725;DHT22;16636;48.394;15.468;2022-08-02T05:11:28;19.40;99.90
29725;DHT22;16636;48.394;15.468;2022-08-02T05:13:54;19.40;99.90
29725;DHT22;16636;48.394;15.468;2022-08-02T05:16:20;19.50;99.90
29725;DHT22;16636;48.394;15.468;2022-08-02T05:18:46;19.50;99.90
29725;DHT22;16636;48.394;15.468;2022-08-02T05:21:12;19.50;99.90
29725;DHT22;16636;48.394;15.468;2022-08-02T05:23:38;19.50;99.90
29725;DHT22;16636;48.394;15.468;2022-08-02T05:26:04;19.50;99.90
29725;DHT22;16636;48.394;15.468;2022-08-02T05:28:30;19.40;99.90
29725;DHT22;16636;48.394;15.468;2022-08-02T05:30:56;19.40;99.90
29725;DHT22;16636;48.394;15.468;2022-08-02T05:33:22;19.40;99.90
29725;DHT22;16636;48.394;15.468;2022-08-02T05:35:48;19.40;99.90
29725;DHT22;16636;48.394;15.468;2022-08-02T05:38:14;19.40;99.90
29725;DHT22;16636;48.394;15.468;2022-08-02T05:40:39;19.40;99.90
29725;DHT22;16636;48.394;15.468;2022-08-02T05:43:15;19.40;99.90
29725;DHT22;16636;48.394;15.468;2022-08-02T05:45:44;19.40;99.90
29725;DHT22;16636;48.394;15.468;2022-08-02T05:48:10;19.30;99.90
29725;DHT22;16636;48.394;15.468;2022-08-02T05:50:38;19.40;99.90
29725;DHT22;16636;48.394;15.468;2022-08-02T05:56:30;19.30;99.90
29725;DHT22;16636;48.394;15.468;2022-08-02T06:01:47;19.30;99.90
29725;DHT22;16636;48.394;15.468;2022-08-02T06:04:22;19.40;99.90
29725;DHT22;16636;48.394;15.468;2022-08-02T06:06:51;19.40;99.90
29725;DHT22;16636;48.394;15.468;2022-08-02T06:09:21;19.40;99.90
29725;DHT22;16636;48.394;15.468;2022-08-02T06:11:50;19.50;99.90
29725;DHT22;16636;48.394;15.468;2022-08-02T06:14:20;19.50;99.90
29725;DHT22;16636;48.394;15.468;2022-08-02T06:16:48;19.50;99.90
29725;DHT22;16636;48.394;15.468;2022-08-02T06:19:23;19.50;99.90
29725;DHT22;16636;48.394;15.468;2022-08-02T06:21:56;19.50;99.90
29725;DHT22;16636;48.394;15.468;2022-08-02T06:24:44;19.50;99.90
29725;DHT22;16636;48.394;15.468;2022-08-02T06:27:14;19.50;99.90
29725;DHT22;16636;48.394;15.468;2022-08-02T06:29:42;19.60;99.90
29725;DHT22;16636;48.394;15.468;2022-08-02T06:32:08;19.70;99.90
29725;DHT22;16636;48.394;15.468;2022-08-02T06:34:41;19.70;99.90
29725;DHT22;16636;48.394;15.468;2022-08-02T06:37:24;19.70;99.90
29725;DHT22;16636;48.394;15.468;2022-08-02T06:39:58;19.70;99.90
29725;DHT22;16636;48.394;15.468;2022-08-02T06:42:40;19.70;99.90
29725;DHT22;16636;48.394;15.468;2022-08-02T06:45:08;19.70;99.90
29725;DHT22;16636;48.394;15.468;2022-08-02T06:47:34;19.80;99.90
29725;DHT22;16636;48.394;15.468;2022-08-02T06:50:00;19.80;99.90
29725;DHT22;16636;48.394;15.468;2022-08-02T06:52:28;19.90;99.90
29725;DHT22;16636;48.394;15.468;2022-08-02T06:55:01;19.90;99.90
29725;DHT22;16636;48.394;15.468;2022-08-02T06:57:29;20.00;99.90
29725;DHT22;16636;48.394;15.468;2022-08-02T06:59:56;20.00;99.90
29725;DHT22;16636;48.394;15.468;2022-08-02T07:02:23;20.00;99.90
29725;DHT22;16636;48.394;15.468;2022-08-02T07:04:49;20.00;99.90
29725;DHT22;16636;48.394;15.468;2022-08-02T07:07:15;20.10;99.90
29725;DHT22;16636;48.394;15.468;2022-08-02T07:09:41;20.10;99.90
29725;DHT22;16636;48.394;15.468;2022-08-02T07:12:07;20.10;99.90
29725;DHT22;16636;48.394;15.468;2022-08-02T07:14:33;20.20;99.90
29725;DHT22;16636;48.394;15.468;2022-08-02T07:16:59;20.20;99.90
29725;DHT22;16636;48.394;15.468;2022-08-02T07:19:25;20.30;99.90
29725;DHT22;16636;48.394;15.468;2022-08-02T07:21:51;20.40;99.90
29725;DHT22;16636;48.394;15.468;2022-08-02T07:24:17;20.40;99.90
29725;DHT22;16636;48.394;15.468;2022-08-02T07:26:43;20.50;99.90
29725;DHT22;16636;48.394;15.468;2022-08-02T07:29:09;20.60;99.90
29725;DHT22;16636;48.394;15.468;2022-08-02T07:31:35;20.60;99.90
29725;DHT22;16636;48.394;15.468;2022-08-02T07:34:01;20.60;99.90
29725;DHT22;16636;48.394;15.468;2022-08-02T07:36:27;20.70;99.90
29725;DHT22;16636;48.394;15.468;2022-08-02T07:38:52;20.70;99.90
29725;DHT22;16636;48.394;15.468;2022-08-02T07:41:19;20.70;99.90
29725;DHT22;16636;48.394;15.468;2022-08-02T07:43:44;20.70;99.90
29725;DHT22;16636;48.394;15.468;2022-08-02T07:46:10;20.80;99.90
29725;DHT22;16636;48.394;15.468;2022-08-02T07:48:36;20.80;99.90
29725;DHT22;16636;48.394;15.468;2022-08-02T07:51:02;20.90;99.90
29725;DHT22;16636;48.394;15.468;2022-08-02T07:53:28;21.00;99.90
29725;DHT22;16636;48.394;15.468;2022-08-02T07:55:55;21.20;99.90
29725;DHT22;16636;48.394;15.468;2022-08-02T07:58:20;21.30;99.90
29725;DHT22;16636;48.394;15.468;2022-08-02T08:00:46;21.50;99.90
29725;DHT22;16636;48.394;15.468;2022-08-02T08:03:15;21.60;99.90
29725;DHT22;16636;48.394;15.468;2022-08-02T08:05:41;21.60;99.90
29725;DHT22;16636;48.394;15.468;2022-08-02T08:08:15;21.60;99.90
29725;DHT22;16636;48.394;15.468;2022-08-02T08:10:41;21.60;99.90
29725;DHT22;16636;48.394;15.468;2022-08-02T08:13:07;21.50;99.90
29725;DHT22;16636;48.394;15.468;2022-08-02T08:15:33;21.60;99.90
29725;DHT22;16636;48.394;15.468;2022-08-02T08:17:59;21.70;99.90
29725;DHT22;16636;48.394;15.468;2022-08-02T08:20:25;21.80;99.90
29725;DHT22;16636;48.394;15.468;2022-08-02T08:22:51;21.80;99.90
29725;DHT22;16636;48.394;15.468;2022-08-02T08:25:17;21.70;99.90
29725;DHT22;16636;48.394;15.468;2022-08-02T08:31:03;22.00;99.90
29725;DHT22;16636;48.394;15.468;2022-08-02T08:33:29;22.30;99.90
29725;DHT22;16636;48.394;15.468;2022-08-02T08:35:55;22.40;99.90
29725;DHT22;16636;48.394;15.468;2022-08-02T08:38:22;22.40;99.90
29725;DHT22;16636;48.394;15.468;2022-08-02T08:40:49;22.40;99.90
29725;DHT22;16636;48.394;15.468;2022-08-02T08:43:15;22.40;99.90
29725;DHT22;16636;48.394;15.468;2022-08-02T08:45:46;22.40;99.90
29725;DHT22;16636;48.394;15.468;2022-08-02T08:48:16;22.40;99.90
29725;DHT22;16636;48.394;15.468;2022-08-02T08:50:49;22.40;99.90
29725;DHT22;16636;48.394;15.468;2022-08-02T08:53:19;22.50;99.90
29725;DHT22;16636;48.394;15.468;2022-08-02T08:55:46;22.50;99.90
29725;DHT22;16636;48.394;15.468;2022-08-02T08:58:13;22.60;99.90
29725;DHT22;16636;48.394;15.468;2022-08-02T09:00:39;22.70;99.90
29725;DHT22;16636;48.394;15.468;2022-08-02T09:03:06;22.80;99.90
29725;DHT22;16636;48.394;15.468;2022-08-02T09:05:37;22.80;99.90
29725;DHT22;16636;48.394;15.468;2022-08-02T09:08:04;22.80;99.90
29725;DHT22;16636;48.394;15.468;2022-08-02T09:10:34;22.80;99.90
29725;DHT22;16636;48.394;15.468;2022-08-02T09:13:21;22.90;99.90
29725;DHT22;16636;48.394;15.468;2022-08-02T09:15:59;22.90;99.90
29725;DHT22;16636;48.394;15.468;2022-08-02T09:18:34;22.90;99.90
29725;DHT22;16636;48.394;15.468;2022-08-02T09:21:05;22.90;99.90
29725;DHT22;16636;48.394;15.468;2022-08-02T09:23:35;22.90;99.90
29725;DHT22;16636;48.394;15.468;2022-08-02T09:26:07;23.00;99.90
29725;DHT22;16636;48.394;15.468;2022-08-02T09:28:36;23.20;99.90
29725;DHT22;16636;48.394;15.468;2022-08-02T09:31:11;23.30;99.90
29725;DHT22;16636;48.394;15.468;2022-08-02T09:33:39;23.40;99.90
29725;DHT22;16636;48.394;15.468;2022-08-02T09:36:14;23.40;99.90
29725;DHT22;16636;48.394;15.468;2022-08-02T09:39:00;23.60;99.90
29725;DHT22;16636;48.394;15.468;2022-08-02T09:41:29;23.70;99.90
29725;DHT22;16636;48.394;15.468;2022-08-02T09:43:56;23.80;99.90
29725;DHT22;16636;48.394;15.468;2022-08-02T09:46:26;24.00;99.90
29725;DHT22;16636;48.394;15.468;2022-08-02T09:51:33;24.20;99.90
29725;DHT22;16636;48.394;15.468;2022-08-02T09:54:04;24.40;99.90
29725;DHT22;16636;48.394;15.468;2022-08-02T09:56:48;24.50;99.90
29725;DHT22;16636;48.394;15.468;2022-08-02T10:03:10;24.80;99.90
29725;DHT22;16636;48.394;15.468;2022-08-02T10:05:53;25.00;99.90
29725;DHT22;16636;48.394;15.468;2022-08-02T10:08:19;25.00;99.90
29725;DHT22;16636;48.394;15.468;2022-08-02T10:10:45;25.10;99.90
29725;DHT22;16636;48.394;15.468;2022-08-02T10:13:12;25.20;99.90
29725;DHT22;16636;48.394;15.468;2022-08-02T10:15:39;25.30;99.90
29725;DHT22;16636;48.394;15.468;2022-08-02T10:18:06;25.50;99.90
29725;DHT22;16636;48.394;15.468;2022-08-02T10:20:55;25.50;99.90
29725;DHT22;16636;48.394;15.468;2022-08-02T10:23:24;25.50;99.90
29725;DHT22;16636;48.394;15.468;2022-08-02T10:25:53;25.40;99.90
29725;DHT22;16636;48.394;15.468;2022-08-02T10:28:26;25.50;99.90
29725;DHT22;16636;48.394;15.468;2022-08-02T10:31:02;25.60;99.90
29725;DHT22;16636;48.394;15.468;2022-08-02T10:33:33;25.70;99.90
29725;DHT22;16636;48.394;15.468;2022-08-02T10:36:01;25.80;99.90
29725;DHT22;16636;48.394;15.468;2022-08-02T10:38:29;25.90;99.90
29725;DHT22;16636;48.394;15.468;2022-08-02T10:40:56;26.00;99.90
29725;DHT22;16636;48.394;15.468;2022-08-02T10:43:38;26.20;99.90
29725;DHT22;16636;48.394;15.468;2022-08-02T10:46:23;26.30;99.90
29725;DHT22;16636;48.394;15.468;2022-08-02T10:54:24;26.50;99.90
29725;DHT22;16636;48.394;15.468;2022-08-02T10:56:52;26.40;99.90
29725;DHT22;16636;48.394;15.468;2022-08-02T10:59:39;26.30;99.90
29725;DHT22;16636;48.394;15.468;2022-08-02T11:02:06;26.00;99.90
29725;DHT22;16636;48.394;15.468;2022-08-02T11:09:47;26.00;99.90
29725;DHT22;16636;48.394;15.468;2022-08-02T11:12:15;26.10;99.90
29725;DHT22;16636;48.394;15.468;2022-08-02T11:14:44;26.40;99.90
29725;DHT22;16636;48.394;15.468;2022-08-02T11:17:17;26.70;99.90
29725;DHT22;16636;48.394;15.468;2022-08-02T11:20:12;27.10;99.90
29725;DHT22;16636;48.394;15.468;2022-08-02T11:22:40;27.20;99.90
29725;DHT22;16636;48.394;15.468;2022-08-02T11:30:21;26.80;99.90
29725;DHT22;16636;48.394;15.468;2022-08-02T11:32:47;26.60;99.90
29725;DHT22;16636;48.394;15.468;2022-08-02T11:35:14;26.40;99.90
29725;DHT22;16636;48.394;15.468;2022-08-02T11:38:12;26.30;99.90
29725;DHT22;16636;48.394;15.468;2022-08-02T11:40:38;26.20;99.90
29725;DHT22;16636;48.394;15.468;2022-08-02T11:43:18;26.10;99.90
29725;DHT22;16636;48.394;15.468;2022-08-02T11:45:45;26.00;99.90
29725;DHT22;16636;48.394;15.468;2022-08-02T11:48:11;25.90;99.90
29725;DHT22;16636;48.394;15.468;2022-08-02T11:50:38;26.00;99.90
29725;DHT22;16636;48.394;15.468;2022-08-02T11:53:14;25.90;99.90
29725;DHT22;16636;48.394;15.468;2022-08-02T11:55:41;26.00;99.90
29725;DHT22;16636;48.394;15.468;2022-08-02T11:58:07;26.00;99.90
29725;DHT22;16636;48.394;15.468;2022-08-02T12:00:36;26.00;99.90
29725;DHT22;16636;48.394;15.468;2022-08-02T12:03:02;25.90;99.90
29725;DHT22;16636;48.394;15.468;2022-08-02T12:05:28;25.90;99.90
29725;DHT22;16636;48.394;15.468;2022-08-02T12:07:56;26.00;99.90
29725;DHT22;16636;48.394;15.468;2022-08-02T12:10:23;26.50;99.90
29725;DHT22;16636;48.394;15.468;2022-08-02T12:12:51;26.90;99.90
29725;DHT22;16636;48.394;15.468;2022-08-02T12:15:50;27.30;99.90
29725;DHT22;16636;48.394;15.468;2022-08-02T12:18:19;27.70;99.90
29725;DHT22;16636;48.394;15.468;2022-08-02T12:21:22;27.50;99.90
29725;DHT22;16636;48.394;15.468;2022-08-02T12:23:49;27.40;99.90
29725;DHT22;16636;48.394;15.468;2022-08-02T12:26:16;27.30;99.90
29725;DHT22;16636;48.394;15.468;2022-08-02T12:28:42;27.10;99.90
29725;DHT22;16636;48.394;15.468;2022-08-02T12:31:09;27.00;99.90
29725;DHT22;16636;48.394;15.468;2022-08-02T12:33:46;27.00;99.90
29725;DHT22;16636;48.394;15.468;2022-08-02T12:36:18;27.30;99.90
29725;DHT22;16636;48.394;15.468;2022-08-02T12:38:51;27.70;99.90
29725;DHT22;16636;48.394;15.468;2022-08-02T12:41:35;28.00;99.90
29725;DHT22;16636;48.394;15.468;2022-08-02T12:44:27;28.30;99.90
29725;DHT22;16636;48.394;15.468;2022-08-02T12:47:00;28.10;99.90
29725;DHT22;16636;48.394;15.468;2022-08-02T12:49:27;28.10;99.90
29725;DHT22;16636;48.394;15.468;2022-08-02T12:51:54;28.10;99.90
29725;DHT22;16636;48.394;15.468;2022-08-02T12:54:26;28.20;99.90
29725;DHT22;16636;48.394;15.468;2022-08-02T12:56:52;28.40;99.90
29725;DHT22;16636;48.394;15.468;2022-08-02T12:59:39;28.50;99.90
29725;DHT22;16636;48.394;15.468;2022-08-02T13:02:07;28.70;99.90
29725;DHT22;16636;48.394;15.468;2022-08-02T13:04:33;28.80;99.90
29725;DHT22;16636;48.394;15.468;2022-08-02T13:07:00;29.00;99.90
29725;DHT22;16636;48.394;15.468;2022-08-02T13:09:26;29.20;99.90
29725;DHT22;16636;48.394;15.468;2022-08-02T13:11:52;29.20;99.90
29725;DHT22;16636;48.394;15.468;2022-08-02T13:14:18;29.20;99.90
29725;DHT22;16636;48.394;15.468;2022-08-02T13:16:45;29.30;99.90
29725;DHT22;16636;48.394;15.468;2022-08-02T13:19:12;29.40;99.90
29725;DHT22;16636;48.394;15.468;2022-08-02T13:21:42;29.50;99.90
29725;DHT22;16636;48.394;15.468;2022-08-02T13:24:08;29.60;99.90
29725;DHT22;16636;48.394;15.468;2022-08-02T13:26:35;29.70;99.90
29725;DHT22;16636;48.394;15.468;2022-08-02T13:29:01;29.60;99.90
29725;DHT22;16636;48.394;15.468;2022-08-02T13:31:28;29.40;99.90
29725;DHT22;16636;48.394;15.468;2022-08-02T13:33:54;29.60;99.90
29725;DHT22;16636;48.394;15.468;2022-08-02T13:36:19;29.50;99.90
29725;DHT22;16636;48.394;15.468;2022-08-02T13:39:07;29.80;99.90
29725;DHT22;16636;48.394;15.468;2022-08-02T13:41:34;29.80;99.90
29725;DHT22;16636;48.394;15.468;2022-08-02T13:43:59;29.90;99.90
29725;DHT22;16636;48.394;15.468;2022-08-02T13:46:26;29.60;99.90
29725;DHT22;16636;48.394;15.468;2022-08-02T13:48:52;29.10;99.90
29725;DHT22;16636;48.394;15.468;2022-08-02T13:51:17;29.10;99.90
29725;DHT22;16636;48.394;15.468;2022-08-02T13:53:43;29.00;99.90
29725;DHT22;16636;48.394;15.468;2022-08-02T13:56:09;28.80;99.90
29725;DHT22;16636;48.394;15.468;2022-08-02T13:58:35;28.60;99.90
29725;DHT22;16636;48.394;15.468;2022-08-02T14:01:01;28.80;99.90
29725;DHT22;16636;48.394;15.468;2022-08-02T14:03:27;29.10;99.90
29725;DHT22;16636;48.394;15.468;2022-08-02T14:05:53;28.90;99.90
29725;DHT22;16636;48.394;15.468;2022-08-02T14:08:19;28.80;99.90
29725;DHT22;16636;48.394;15.468;2022-08-02T14:10:48;28.60;99.90
29725;DHT22;16636;48.394;15.468;2022-08-02T14:13:15;28.40;99.90
29725;DHT22;16636;48.394;15.468;2022-08-02T14:15:41;28.30;99.90
29725;DHT22;16636;48.394;15.468;2022-08-02T14:18:07;28.20;99.90
29725;DHT22;16636;48.394;15.468;2022-08-02T14:20:33;28.10;99.90
29725;DHT22;16636;48.394;15.468;2022-08-02T14:23:14;28.00;99.90
29725;DHT22;16636;48.394;15.468;2022-08-02T14:25:40;27.90;99.90
29725;DHT22;16636;48.394;15.468;2022-08-02T14:28:06;27.90;99.90
29725;DHT22;16636;48.394;15.468;2022-08-02T14:30:33;27.80;99.90
29725;DHT22;16636;48.394;15.468;2022-08-02T14:32:59;27.70;99.90
29725;DHT22;16636;48.394;15.468;2022-08-02T14:35:25;27.60;99.90
29725;DHT22;16636;48.394;15.468;2022-08-02T14:37:51;27.60;99.90
29725;DHT22;16636;48.394;15.468;2022-08-02T14:40:17;27.50;99.90
29725;DHT22;16636;48.394;15.468;2022-08-02T14:42:43;27.50;99.90
29725;DHT22;16636;48.394;15.468;2022-08-02T14:45:09;27.50;99.90
29725;DHT22;16636;48.394;15.468;2022-08-02T14:47:35;27.50;99.90
29725;DHT22;16636;48.394;15.468;2022-08-02T14:50:01;27.50;99.90
29725;DHT22;16636;48.394;15.468;2022-08-02T14:52:27;27.50;99.90
29725;DHT22;16636;48.394;15.468;2022-08-02T14:54:53;27.40;99.90
29725;DHT22;16636;48.394;15.468;2022-08-02T14:57:20;27.40;99.90
29725;DHT22;16636;48.394;15.468;2022-08-02T14:59:46;27.30;99.90
29725;DHT22;16636;48.394;15.468;2022-08-02T15:02:12;27.20;99.90
29725;DHT22;16636;48.394;15.468;2022-08-02T15:04:38;27.10;99.90
29725;DHT22;16636;48.394;15.468;2022-08-02T15:07:04;27.10;99.90
29725;DHT22;16636;48.394;15.468;2022-08-02T15:09:30;27.00;99.90
29725;DHT22;16636;48.394;15.468;2022-08-02T15:11:55;26.90;99.90
29725;DHT22;16636;48.394;15.468;2022-08-02T15:14:21;26.90;99.90
29725;DHT22;16636;48.394;15.468;2022-08-02T15:16:48;26.80;99.90
29725;DHT22;16636;48.394;15.468;2022-08-02T15:19:14;26.80;99.90
29725;DHT22;16636;48.394;15.468;2022-08-02T15:21:40;26.70;99.90
29725;DHT22;16636;48.394;15.468;2022-08-02T15:24:06;26.70;99.90
29725;DHT22;16636;48.394;15.468;2022-08-02T15:29:39;26.50;99.90
29725;DHT22;16636;48.394;15.468;2022-08-02T15:32:05;26.50;99.90
29725;DHT22;16636;48.394;15.468;2022-08-02T15:34:49;26.40;99.90
29725;DHT22;16636;48.394;15.468;2022-08-02T15:37:31;26.40;99.90
29725;DHT22;16636;48.394;15.468;2022-08-02T15:40:00;26.30;99.90
29725;DHT22;16636;48.394;15.468;2022-08-02T15:42:26;26.30;99.90
29725;DHT22;16636;48.394;15.468;2022-08-02T15:44:52;26.30;99.90
29725;DHT22;16636;48.394;15.468;2022-08-02T15:47:18;26.30;99.90
29725;DHT22;16636;48.394;15.468;2022-08-02T15:49:46;26.30;99.90
29725;DHT22;16636;48.394;15.468;2022-08-02T15:52:12;26.30;99.90
29725;DHT22;16636;48.394;15.468;2022-08-02T15:54:38;26.20;99.90
29725;DHT22;16636;48.394;15.468;2022-08-02T15:57:05;26.30;99.90
29725;DHT22;16636;48.394;15.468;2022-08-02T15:59:31;26.20;99.90
29725;DHT22;16636;48.394;15.468;2022-08-02T16:01:57;26.30;99.90
29725;DHT22;16636;48.394;15.468;2022-08-02T16:04:23;26.30;99.90
29725;DHT22;16636;48.394;15.468;2022-08-02T16:06:49;26.20;99.90
29725;DHT22;16636;48.394;15.468;2022-08-02T16:09:15;26.20;99.90
29725;DHT22;16636;48.394;15.468;2022-08-02T16:11:41;26.20;99.90
29725;DHT22;16636;48.394;15.468;2022-08-02T16:14:07;26.30;99.90